Time;durP1;ratioP1;P1;durP2;ratioP2;P2;SDS_P1;SDS_P2;PMS_P1;PMS_P2;Temp;Humidity;BMP_temperature;BMP_pressure;BME280_temperature;BME280_humidity;BME280_pressure;Samples;Min_cycle;Max_cycle;Signal;HPM_P1;HPM_P2
2023/06/16 00:01:23;;;;;;;2.50;1.77;;;;;;;20.72;100.00;99982.78;4985086;28;20189;-69
2023/06/16 00:03:49;;;;;;;2.80;2.15;;;;;;;20.09;100.00;99887.19;4985209;28;20049;-73
2023/06/16 00:06:16;;;;;;;3.78;2.45;;;;;;;20.60;100.00;100008.25;4987224;28;20047;-71
2023/06/16 00:08:44;;;;;;;2.30;1.30;;;;;;;20.39;100.00;99972.78;4983775;28;20038;-70
2023/06/16 00:11:11;;;;;;;3.75;1.83;;;;;;;19.65;100.00;99863.50;4982795;28;20464;-70
2023/06/16 00:13:37;;;;;;;5.10;2.28;;;;;;;20.09;100.00;99946.66;4981094;28;20046;-70
2023/06/16 00:16:02;;;;;;;5.85;1.70;;;;;;;20.32;100.00;99976.69;4983940;28;20046;-72
2023/06/16 00:18:29;;;;;;;3.10;1.40;;;;;;;20.35;100.00;99987.22;4980516;28;20043;-74
2023/06/16 00:20:55;;;;;;;4.05;2.25;;;;;;;19.68;100.00;99880.22;4986492;28;20132;-73
2023/06/16 00:23:22;;;;;;;4.25;1.83;;;;;;;20.22;100.00;99989.56;4984343;28;20129;-73
2023/06/16 00:25:48;;;;;;;3.90;2.25;;;;;;;19.56;100.00;99870.97;4985685;28;20042;-73
2023/06/16 00:28:14;;;;;;;2.28;1.40;;;;;;;19.77;100.00;99911.72;4984921;28;20050;-74
2023/06/16 00:30:39;;;;;;;4.03;2.38;;;;;;;20.28;100.00;99986.63;4979245;28;20069;-73
2023/06/16 00:33:05;;;;;;;4.10;1.98;;;;;;;19.77;100.00;99869.13;4985643;28;20031;-72
2023/06/16 00:35:31;;;;;;;6.25;2.33;;;;;;;20.07;100.00;99956.53;4982950;28;20038;-74
2023/06/16 00:37:57;;;;;;;4.38;3.00;;;;;;;19.53;100.00;99903.03;4987936;28;20768;-71
2023/06/16 00:40:22;;;;;;;6.32;3.38;;;;;;;19.85;100.00;99951.31;4987403;28;20057;-71
2023/06/16 00:42:47;;;;;;;3.53;2.10;;;;;;;20.02;100.00;99970.06;4983184;28;20079;-72
2023/06/16 00:45:13;;;;;;;6.57;2.92;;;;;;;19.26;100.00;99861.72;4986341;28;20112;-71
2023/06/16 00:47:39;;;;;;;5.18;2.67;;;;;;;19.57;100.00;99936.59;4985763;28;20054;-74
2023/06/16 00:50:06;;;;;;;4.72;2.72;;;;;;;19.68;100.00;99946.75;4992690;28;20053;-73
2023/06/16 00:52:35;;;;;;;5.50;3.08;;;;;;;19.81;100.00;99955.94;4988817;28;20061;-73
2023/06/16 00:55:02;;;;;;;5.07;3.08;;;;;;;19.71;100.00;99962.59;4989495;28;20145;-73
2023/06/16 00:57:29;;;;;;;5.43;2.85;;;;;;;19.52;100.00;99932.38;4986065;28;20046;-72
2023/06/16 00:59:55;;;;;;;6.75;3.05;;;;;;;19.28;100.00;99859.84;4991118;28;20038;-73
2023/06/16 01:02:21;;;;;;;3.92;2.47;;;;;;;19.22;100.00;99858.31;4988795;28;20040;-72
2023/06/16 01:04:48;;;;;;;5.95;3.50;;;;;;;19.42;100.00;99878.72;4984983;28;20050;-73
2023/06/16 01:07:30;;;;;;;5.07;3.13;;;;;;;19.07;100.00;99841.25;4985564;28;20115;-72
2023/06/16 01:10:17;;;;;;;3.20;2.53;;;;;;;19.17;100.00;99831.06;4986120;28;20061;-71
2023/06/16 01:12:48;;;;;;;4.80;3.33;;;;;;;20.00;100.00;99963.06;4985482;28;20050;-72
2023/06/16 01:15:21;;;;;;;4.45;2.75;;;;;;;19.07;100.00;99801.34;4986847;28;20053;-72
2023/06/16 01:17:48;;;;;;;4.03;2.70;;;;;;;19.93;100.00;99946.50;4986788;28;20038;-71
2023/06/16 01:20:37;;;;;;;4.15;3.22;;;;;;;20.03;100.00;99957.59;4986904;28;20050;-72
2023/06/16 01:23:25;;;;;;;4.57;3.15;;;;;;;20.01;100.00;99947.00;4993433;28;20132;-72
2023/06/16 01:25:55;;;;;;;4.50;2.70;;;;;;;19.32;100.00;99838.34;4987782;28;20395;-72
2023/06/16 01:28:28;;;;;;;5.10;2.95;;;;;;;19.50;100.00;99876.59;4988546;28;20064;-72
2023/06/16 01:30:54;;;;;;;11.80;2.65;;;;;;;19.90;100.00;99941.34;4986680;28;20185;-72
2023/06/16 01:33:23;;;;;;;4.22;2.38;;;;;;;19.26;100.00;99846.59;4988774;28;20132;-71
2023/06/16 01:35:50;;;;;;;6.15;2.63;;;;;;;19.22;100.00;99844.16;4989038;28;20700;-73
2023/06/16 01:38:16;;;;;;;6.75;2.13;;;;;;;19.38;100.00;99871.78;4988024;28;20125;-73
2023/06/16 01:40:43;;;;;;;4.85;2.40;;;;;;;19.78;100.00;99940.09;4982904;28;20050;-72
2023/06/16 01:43:09;;;;;;;3.75;2.85;;;;;;;19.31;100.00;99857.03;4987772;28;20054;-72
2023/06/16 01:45:36;;;;;;;4.50;2.10;;;;;;;19.26;100.00;99867.88;4989097;28;20216;-72
2023/06/16 01:48:02;;;;;;;11.45;4.50;;;;;;;19.78;100.00;99966.72;4985491;28;20412;-73
2023/06/16 01:50:30;;;;;;;3.35;2.03;;;;;;;19.57;100.00;99951.66;4987750;28;20545;-71
2023/06/16 01:52:55;;;;;;;9.38;2.95;;;;;;;19.58;100.00;99940.97;4986858;28;20139;-72
2023/06/16 01:55:21;;;;;;;4.10;3.05;;;;;;;19.45;100.00;99917.63;4986637;28;20070;-71
2023/06/16 01:57:47;;;;;;;3.88;2.67;;;;;;;19.15;100.00;99876.34;4989788;28;20042;-73
2023/06/16 02:00:23;;;;;;;4.65;2.85;;;;;;;19.14;100.00;99871.09;4989070;28;20045;-73
2023/06/16 02:03:15;;;;;;;4.57;3.33;;;;;;;19.60;100.00;99952.41;4983470;28;20038;-73
2023/06/16 02:05:45;;;;;;;6.30;4.18;;;;;;;19.12;100.00;99883.59;4987880;28;20034;-72
2023/06/16 02:08:14;;;;;;;2.80;2.10;;;;;;;19.61;100.00;99956.78;4986980;28;20070;-72
2023/06/16 02:10:39;;;;;;;6.00;2.42;;;;;;;19.12;100.00;99872.97;5001230;28;20121;-71
2023/06/16 02:13:05;;;;;;;4.78;2.45;;;;;;;19.56;100.00;99942.81;4984149;28;20034;-72
2023/06/16 02:15:32;;;;;;;3.75;1.85;;;;;;;19.38;100.00;99933.84;4988623;28;20057;-72
2023/06/16 02:17:58;;;;;;;4.13;2.67;;;;;;;19.53;100.00;99956.28;4986381;28;20062;-73
2023/06/16 02:20:26;;;;;;;6.20;3.00;;;;;;;18.94;100.00;99842.69;5000585;28;20133;-72
2023/06/16 02:22:53;;;;;;;6.88;3.33;;;;;;;18.70;100.00;99820.69;4985917;28;20424;-70
2023/06/16 02:25:19;;;;;;;4.80;2.63;;;;;;;19.44;100.00;99954.00;4986742;28;20065;-72
2023/06/16 02:27:44;;;;;;;3.80;2.25;;;;;;;19.45;100.00;99955.72;4987031;28;20034;-71
2023/06/16 02:30:11;;;;;;;3.25;2.28;;;;;;;19.38;100.00;99957.78;4984434;28;20113;-72
2023/06/16 02:32:37;;;;;;;4.47;2.92;;;;;;;18.69;100.00;99853.53;4988681;28;20054;-73
2023/06/16 02:35:04;;;;;;;3.72;2.13;;;;;;;18.90;100.00;99889.00;4985191;28;20101;-73
2023/06/16 02:37:30;;;;;;;4.95;3.03;;;;;;;19.29;100.00;99960.88;4984103;28;20050;-72
2023/06/16 02:39:56;;;;;;;4.57;2.03;;;;;;;19.13;100.00;99955.34;4988455;28;20057;-70
2023/06/16 02:42:21;;;;;;;3.65;2.08;;;;;;;18.65;100.00;99850.09;4983735;28;20042;-73
2023/06/16 02:44:47;;;;;;;3.55;1.92;;;;;;;18.58;100.00;99850.44;4989448;28;20128;-73
2023/06/16 02:47:13;;;;;;;8.95;3.65;;;;;;;19.09;100.00;99931.59;4986311;28;20045;-72
2023/06/16 02:49:42;;;;;;;4.80;2.88;;;;;;;19.34;100.00;99961.53;4986129;28;20078;-73
2023/06/16 02:52:11;;;;;;;3.80;2.58;;;;;;;19.09;100.00;99940.44;4984317;28;20066;-72
2023/06/16 02:54:39;;;;;;;6.05;2.83;;;;;;;19.05;100.00;99941.50;4986257;28;20062;-71
2023/06/16 02:57:07;;;;;;;4.78;2.67;;;;;;;19.20;100.00;99958.63;4986314;28;20043;-72
2023/06/16 02:59:33;;;;;;;5.75;2.47;;;;;;;18.96;100.00;99952.53;4988713;28;20040;-73
2023/06/16 03:01:58;;;;;;;6.00;3.15;;;;;;;18.72;100.00;99894.09;4988062;28;20535;-72
2023/06/16 03:04:25;;;;;;;4.80;2.67;;;;;;;18.98;100.00;99955.97;4983892;28;20047;-73
2023/06/16 03:06:57;;;;;;;4.00;2.38;;;;;;;18.43;100.00;99857.28;4968883;28;20038;-71
2023/06/16 03:09:26;;;;;;;5.25;2.92;;;;;;;18.51;100.00;99853.34;4987215;28;20054;-72
2023/06/16 03:11:55;;;;;;;4.70;2.40;;;;;;;18.91;100.00;99906.66;4982687;28;20490;-73
2023/06/16 03:14:21;;;;;;;3.40;1.98;;;;;;;19.01;100.00;99939.91;4984231;28;20616;-72
2023/06/16 03:16:48;;;;;;;4.53;3.00;;;;;;;18.56;100.00;99869.97;4985967;28;20073;-72
2023/06/16 03:19:15;;;;;;;5.18;2.42;;;;;;;18.59;100.00;99868.09;4979165;28;20483;-71
2023/06/16 03:21:41;;;;;;;10.20;4.00;;;;;;;18.83;100.00;99909.66;4983655;28;20046;-72
2023/06/16 03:24:07;;;;;;;9.15;3.13;;;;;;;19.04;100.00;99965.53;4983788;28;20077;-73
2023/06/16 03:26:34;;;;;;;4.95;2.75;;;;;;;18.17;100.00;99845.03;4986160;28;20066;-72
2023/06/16 03:29:00;;;;;;;6.05;3.42;;;;;;;18.46;100.00;99857.13;4984349;28;20081;-73
2023/06/16 03:31:26;;;;;;;10.40;2.60;;;;;;;18.98;100.00;99940.03;4982634;28;20050;-72
2023/06/16 03:33:51;;;;;;;5.10;3.08;;;;;;;18.59;100.00;99861.03;4983107;28;20054;-72
2023/06/16 03:36:18;;;;;;;6.65;3.50;;;;;;;18.40;100.00;99842.28;4979833;28;20050;-71
2023/06/16 03:38:44;;;;;;;5.45;3.03;;;;;;;18.85;100.00;99901.63;4984586;28;20508;-71
2023/06/16 03:41:10;;;;;;;5.03;3.13;;;;;;;18.49;100.00;99881.78;4985478;28;20038;-75
2023/06/16 03:43:35;;;;;;;5.65;3.17;;;;;;;18.44;100.00;99851.88;4981582;28;20811;-72
2023/06/16 03:46:01;;;;;;;5.03;2.80;;;;;;;19.26;100.00;99952.16;4980957;28;20089;-71
2023/06/16 03:48:26;;;;;;;4.97;3.30;;;;;;;19.27;100.00;99949.44;4986873;28;20038;-72
2023/06/16 03:50:53;;;;;;;5.95;2.88;;;;;;;19.22;100.00;99939.91;4983221;28;20042;-71
2023/06/16 03:53:19;;;;;;;4.65;2.60;;;;;;;18.65;100.00;99867.84;4986474;28;20457;-71
2023/06/16 03:55:45;;;;;;;9.98;3.60;;;;;;;19.19;100.00;99963.03;4988104;28;20498;-74
2023/06/16 03:58:13;;;;;;;6.70;4.20;;;;;;;18.69;100.00;99866.81;4986195;28;20053;-73
2023/06/16 04:00:38;;;;;;;5.78;3.85;;;;;;;18.80;100.00;99861.94;4986508;28;20084;-72
2023/06/16 04:03:04;;;;;;;5.82;3.42;;;;;;;19.45;100.00;99963.72;4983809;28;20456;-72
2023/06/16 04:05:30;;;;;;;5.18;3.28;;;;;;;19.39;100.00;99934.72;4984691;28;20026;-72
2023/06/16 04:07:56;;;;;;;6.13;3.33;;;;;;;19.04;100.00;99870.63;4984597;28;20054;-71
2023/06/16 04:10:22;;;;;;;7.32;3.67;;;;;;;19.10;100.00;99862.38;4979611;28;20053;-72
2023/06/16 04:12:47;;;;;;;7.22;2.95;;;;;;;19.66;100.00;99953.06;4982673;28;20321;-72
2023/06/16 04:15:13;;;;;;;4.68;3.10;;;;;;;19.77;100.00;99942.81;4987370;28;20049;-71
2023/06/16 04:17:38;;;;;;;6.43;4.22;;;;;;;19.88;100.00;99952.97;4983444;28;20042;-71
2023/06/16 04:20:09;;;;;;;7.85;3.70;;;;;;;19.98;100.00;99960.47;4985697;28;20089;-73
2023/06/16 04:22:35;;;;;;;3.55;2.33;;;;;;;19.40;100.00;99852.16;4985910;28;20042;-73
2023/06/16 04:25:00;;;;;;;10.73;4.25;;;;;;;19.67;100.00;99899.75;4987282;28;20388;-71
2023/06/16 04:27:28;;;;;;;5.47;3.80;;;;;;;19.67;100.00;99885.59;4988765;28;20073;-71
2023/06/16 04:29:54;;;;;;;4.55;2.40;;;;;;;19.99;100.00;99929.38;4984006;28;20047;-71
2023/06/16 04:32:20;;;;;;;7.53;4.57;;;;;;;20.26;100.00;99958.34;4987596;28;20026;-73
2023/06/16 04:34:46;;;;;;;4.97;3.22;;;;;;;20.20;100.00;99927.50;4987921;28;20130;-72
2023/06/16 04:37:13;;;;;;;7.57;3.72;;;;;;;20.34;100.00;99954.34;4983013;28;20078;-73
2023/06/16 04:39:40;;;;;;;6.22;3.92;;;;;;;20.32;100.00;99945.59;4989286;28;20054;-72
2023/06/16 04:42:09;;;;;;;6.57;3.53;;;;;;;20.34;100.00;99924.19;4988740;28;20049;-73
2023/06/16 04:44:34;;;;;;;4.03;2.60;;;;;;;20.07;100.00;99863.31;4985368;28;20525;-73
2023/06/16 04:47:01;;;;;;;5.10;2.63;;;;;;;20.06;100.00;99860.69;4988307;28;20062;-72
2023/06/16 04:49:26;;;;;;;6.50;4.32;;;;;;;20.81;100.00;99956.56;4991856;28;20059;-72
2023/06/16 04:51:52;;;;;;;6.15;4.43;;;;;;;20.75;100.00;99964.00;4991633;28;20055;-73
2023/06/16 04:54:18;;;;;;;9.07;3.88;;;;;;;20.24;100.00;99862.47;4985997;28;20474;-74
2023/06/16 04:56:47;;;;;;;6.38;2.80;;;;;;;20.62;100.00;99918.41;4988912;28;20031;-71
2023/06/16 04:59:13;;;;;;;6.30;3.15;;;;;;;20.83;100.00;99964.47;4983191;28;20149;-73
2023/06/16 05:01:39;;;;;;;11.07;3.75;;;;;;;20.78;100.00;99918.50;4986285;28;20046;-73
2023/06/16 05:04:04;;;;;;;5.32;3.42;;;;;;;21.51;100.00;99977.94;4984762;28;20105;-72
2023/06/16 05:06:35;;;;;;;6.10;4.10;;;;;;;21.34;100.00;99903.19;4986063;28;20049;-74
2023/06/16 05:09:00;;;;;;;5.78;3.15;;;;;;;21.33;100.00;99915.69;4989090;28;20109;-72
2023/06/16 05:11:26;;;;;;;5.78;3.70;;;;;;;21.59;100.00;99918.81;4984828;28;20034;-74
2023/06/16 05:13:51;;;;;;;6.05;3.67;;;;;;;21.69;100.00;99880.81;5019728;28;20050;-73
2023/06/16 05:16:16;;;;;;;3.80;2.13;;;;;;;22.41;100.00;99926.75;5001349;28;20050;-72
2023/06/16 05:18:42;;;;;;;5.32;2.78;;;;;;;22.27;100.00;99881.25;4997887;28;20108;-72
2023/06/16 05:21:07;;;;;;;5.57;2.92;;;;;;;22.77;100.00;99907.69;4985936;28;20483;-72
2023/06/16 05:23:36;;;;;;;4.90;3.10;;;;;;;22.70;100.00;99934.91;4986341;28;20406;-71
2023/06/16 05:26:01;;;;;;;5.80;3.58;;;;;;;22.92;100.00;99980.00;4986038;28;20061;-73
2023/06/16 05:28:27;;;;;;;4.85;3.00;;;;;;;22.65;100.00;99916.44;4985118;28;20070;-72
2023/06/16 05:30:52;;;;;;;6.60;3.58;;;;;;;23.16;100.00;99965.22;4984665;28;20046;-72
2023/06/16 05:33:18;;;;;;;3.60;2.72;;;;;;;23.07;100.00;99938.13;4987296;28;20046;-72
2023/06/16 05:35:43;;;;;;;5.35;3.10;;;;;;;22.44;100.00;99874.91;4987499;28;20042;-74
2023/06/16 05:38:08;;;;;;;2.88;2.17;;;;;;;23.06;100.00;99993.50;4985707;28;20042;-73
2023/06/16 05:40:35;;;;;;;5.32;2.78;;;;;;;23.25;100.00;99987.03;4983284;28;20058;-73
2023/06/16 05:43:00;;;;;;;4.38;3.05;;;;;;;22.58;100.00;99885.66;4986970;28;20544;-74
2023/06/16 05:45:26;;;;;;;5.60;3.20;;;;;;;23.12;100.00;99971.69;4989810;28;20046;-73
2023/06/16 05:47:51;;;;;;;5.97;2.85;;;;;;;22.40;100.00;99900.09;4989941;28;20047;-73
2023/06/16 05:50:17;;;;;;;11.27;3.88;;;;;;;22.39;100.00;99957.19;4990512;28;20034;-74
2023/06/16 05:52:42;;;;;;;4.57;2.97;;;;;;;22.55;100.00;99969.63;4988463;28;20043;-72
2023/06/16 05:55:08;;;;;;;7.07;3.30;;;;;;;22.46;100.00;99982.66;4988615;28;20058;-74
2023/06/16 05:57:33;;;;;;;4.68;3.25;;;;;;;21.69;100.00;99896.84;4985378;28;20047;-77
2023/06/16 05:59:59;;;;;;;3.00;1.80;;;;;;;22.17;100.00;99971.72;4984799;28;20045;-73
2023/06/16 06:02:25;;;;;;;6.38;3.33;;;;;;;21.95;100.00;99974.69;4984832;28;20517;-76
2023/06/16 06:04:51;;;;;;;4.15;2.45;;;;;;;21.63;100.00;99984.44;5019992;28;20129;-72
2023/06/16 06:07:16;;;;;;;4.00;2.95;;;;;;;21.53;100.00;99882.59;4982225;28;20073;-74
2023/06/16 06:09:42;;;;;;;9.00;3.47;;;;;;;21.14;100.00;99794.81;4985768;28;20072;-73
2023/06/16 06:12:09;;;;;;;3.40;2.58;;;;;;;21.54;100.00;99867.44;4980376;28;20042;-73
2023/06/16 06:14:34;;;;;;;31.77;4.07;;;;;;;22.40;100.00;99964.25;4987640;28;20034;-71
2023/06/16 06:17:00;;;;;;;4.85;2.53;;;;;;;22.69;100.00;99997.41;4981096;28;20050;-73
2023/06/16 06:19:25;;;;;;;5.25;2.85;;;;;;;22.11;100.00;99884.72;4982373;28;20445;-71
2023/06/16 06:21:51;;;;;;;5.35;2.75;;;;;;;22.99;100.00;99993.91;4981745;28;20366;-71
2023/06/16 06:24:16;;;;;;;3.88;2.50;;;;;;;22.97;100.00;99996.66;4984973;28;20054;-71
2023/06/16 06:26:43;;;;;;;4.78;2.83;;;;;;;23.10;100.00;99951.34;4982759;28;20430;-71
2023/06/16 06:29:08;;;;;;;4.10;1.85;;;;;;;23.68;100.00;99987.13;4985060;28;20108;-71
2023/06/16 06:31:34;;;;;;;4.90;2.80;;;;;;;23.84;100.00;99997.81;4986250;28;20046;-70
2023/06/16 06:34:00;;;;;;;4.70;2.80;;;;;;;22.91;100.00;99932.78;4983080;28;20095;-72
2023/06/16 06:36:27;;;;;;;3.30;2.78;;;;;;;23.55;100.00;99993.25;4982028;28;20051;-73
2023/06/16 06:38:56;;;;;;;4.85;2.20;;;;;;;23.84;100.00;100000.47;4983577;28;20092;-72
2023/06/16 06:41:22;;;;;;;3.40;1.73;;;;;;;23.72;100.00;99935.94;4984233;28;20046;-71
2023/06/16 06:43:48;;;;;;;2.92;1.65;;;;;;;23.50;100.00;99912.28;4978377;28;20054;-76
2023/06/16 06:46:15;;;;;;;4.60;2.13;;;;;;;23.99;100.00;99980.75;4986431;28;20133;-72
2023/06/16 06:48:40;;;;;;;5.93;3.58;;;;;;;24.05;100.00;99991.09;4981870;28;20058;-72
2023/06/16 06:51:06;;;;;;;7.15;2.33;;;;;;;23.62;100.00;99998.22;4986770;28;20038;-70
2023/06/16 06:53:33;;;;;;;5.60;2.05;;;;;;;24.19;100.00;100004.50;4985531;28;20033;-73
2023/06/16 06:55:58;;;;;;;6.90;2.67;;;;;;;23.14;100.00;99939.50;4978380;28;20507;-77
2023/06/16 06:58:25;;;;;;;3.42;2.40;;;;;;;23.66;100.00;99994.38;4982727;28;20136;-75
2023/06/16 07:00:51;;;;;;;4.55;3.25;;;;;;;22.91;100.00;99952.38;4977051;28;20105;-69
2023/06/16 07:03:16;;;;;;;5.82;3.75;;;;;;;22.80;100.00;99988.72;4984276;28;20046;-70
2023/06/16 07:05:42;;;;;;;3.30;2.13;;;;;;;23.92;100.00;100003.53;4984316;28;20038;-71
2023/06/16 07:08:08;;;;;;;2.45;1.65;;;;;;;23.47;100.00;99978.56;4985438;28;20055;-72
2023/06/16 07:10:36;;;;;;;4.50;2.40;;;;;;;23.28;100.00;100011.81;4982962;28;20570;-74
2023/06/16 07:13:02;;;;;;;4.63;2.67;;;;;;;23.56;100.00;99976.19;4981652;28;20173;-70
2023/06/16 07:15:27;;;;;;;4.95;2.75;;;;;;;23.53;100.00;99912.13;4984094;28;20380;-69
2023/06/16 07:17:53;;;;;;;2.78;2.08;;;;;;;23.70;100.00;99998.63;4976815;28;22088;-72
2023/06/16 07:20:19;;;;;;;3.97;2.17;;;;;;;23.55;100.00;99965.56;4982499;28;20417;-69
2023/06/16 07:22:45;;;;;;;5.35;2.17;;;;;;;23.86;100.00;100002.09;4969808;28;20173;-71
2023/06/16 07:25:15;;;;;;;6.63;3.53;;;;;;;23.32;100.00;99975.00;4976068;28;20116;-68
2023/06/16 07:27:40;;;;;;;4.43;2.50;;;;;;;23.46;100.00;99953.63;4978195;28;20465;-65
2023/06/16 07:30:07;;;;;;;2.95;1.98;;;;;;;23.83;100.00;99961.22;4977960;28;20042;-62
2023/06/16 07:32:32;;;;;;;3.05;2.10;;;;;;;23.53;100.00;99917.47;4976921;28;20081;-66
2023/06/16 07:34:58;;;;;;;4.93;2.47;;;;;;;23.58;100.00;99965.41;4982719;28;20046;-64
2023/06/16 07:37:23;;;;;;;4.13;2.28;;;;;;;23.77;100.00;99967.84;4975564;28;20050;-64
2023/06/16 07:39:49;;;;;;;3.22;1.73;;;;;;;23.32;100.00;99908.06;4984655;28;20042;-63
2023/06/16 07:42:15;;;;;;;3.85;2.13;;;;;;;23.28;100.00;99890.47;4975362;28;20607;-66
2023/06/16 07:44:41;;;;;;;4.72;3.10;;;;;;;23.92;100.00;99982.09;4985412;28;20037;-64
2023/06/16 07:47:07;;;;;;;3.38;2.25;;;;;;;23.62;100.00;99929.41;4984742;28;20847;-64
2023/06/16 07:49:32;;;;;;;2.85;1.83;;;;;;;23.05;100.00;99905.25;4984883;28;20409;-64
2023/06/16 07:51:58;;;;;;;3.03;1.90;;;;;;;23.49;100.00;99891.81;4983186;28;20046;-64
2023/06/16 07:54:23;;;;;;;4.60;2.63;;;;;;;23.96;100.00;99984.47;4981821;28;21132;-64
2023/06/16 07:56:50;;;;;;;4.90;2.05;;;;;;;24.41;100.00;100000.44;4982108;28;20042;-64
2023/06/16 07:59:15;;;;;;;3.97;2.13;;;;;;;24.33;100.00;99984.00;4986357;28;20051;-65
2023/06/16 08:01:42;;;;;;;3.83;2.60;;;;;;;24.41;100.00;99993.25;4991038;28;20042;-66
2023/06/16 08:04:08;;;;;;;6.10;2.50;;;;;;;24.54;100.00;99995.19;4988851;28;20046;-65
2023/06/16 08:06:34;;;;;;;3.05;2.13;;;;;;;24.25;100.00;99932.66;4988111;28;20364;-64
2023/06/16 08:08:59;;;;;;;4.28;2.63;;;;;;;24.63;100.00;99998.13;4987173;28;20038;-66
2023/06/16 08:11:25;;;;;;;5.53;3.70;;;;;;;24.15;100.00;99908.25;4982518;28;20035;-65
2023/06/16 08:13:52;;;;;;;3.55;2.40;;;;;;;24.51;100.00;99928.31;4985419;28;20065;-69
2023/06/16 08:16:17;;;;;;;5.03;3.30;;;;;;;24.70;100.00;100008.44;4985664;28;20069;-68
2023/06/16 08:18:43;;;;;;;2.67;2.00;;;;;;;24.66;100.00;99913.03;5002208;28;20585;-75
2023/06/16 08:21:10;;;;;;;4.13;2.47;;;;;;;25.36;98.26;99983.47;4980712;28;20034;-72
2023/06/16 08:23:37;;;;;;;1.40;0.93;;;;;;;25.49;88.09;99933.28;4986577;28;20041;-73
2023/06/16 08:26:04;;;;;;;5.68;2.00;;;;;;;25.80;81.00;99960.72;4983913;28;20078;-74
2023/06/16 08:28:30;;;;;;;1.27;0.77;;;;;;;25.67;78.03;99976.81;4980043;28;20046;-71
2023/06/16 08:30:55;;;;;;;3.45;1.42;;;;;;;25.79;78.47;99979.63;4982612;28;20064;-73
2023/06/16 08:33:21;;;;;;;3.03;1.58;;;;;;;25.45;73.01;99920.16;4980924;28;20046;-72
2023/06/16 08:35:46;;;;;;;2.58;1.70;;;;;;;25.61;74.04;99901.13;4979061;28;20077;-72
2023/06/16 08:38:12;;;;;;;2.50;1.25;;;;;;;25.99;70.55;99967.47;4977174;28;20057;-71
2023/06/16 08:40:37;;;;;;;3.22;1.35;;;;;;;25.92;64.49;99961.69;4975378;28;20517;-72
2023/06/16 08:43:08;;;;;;;3.20;1.55;;;;;;;25.42;66.01;99870.19;4983249;28;20046;-71
2023/06/16 08:45:35;;;;;;;1.20;0.88;;;;;;;25.60;60.92;99908.34;4981740;28;20100;-74
2023/06/16 08:48:00;;;;;;;5.35;1.42;;;;;;;26.22;58.67;99955.94;4988397;28;20054;-73
2023/06/16 08:50:26;;;;;;;2.45;1.52;;;;;;;26.36;57.07;99972.88;4983984;28;20118;-72
2023/06/16 08:52:57;;;;;;;4.18;1.65;;;;;;;26.46;58.28;99909.38;4968302;28;20494;-74
2023/06/16 08:55:23;;;;;;;3.40;2.00;;;;;;;26.55;58.52;99905.16;4974917;28;20104;-73
2023/06/16 08:57:51;;;;;;;3.15;1.70;;;;;;;26.97;58.27;99978.28;4987246;28;20050;-72
2023/06/16 09:00:18;;;;;;;2.28;1.40;;;;;;;26.45;57.12;99900.41;4983432;28;20148;-73
2023/06/16 09:02:48;;;;;;;4.20;1.10;;;;;;;25.68;56.75;99856.75;4981683;28;20105;-73
2023/06/16 09:05:16;;;;;;;2.90;1.80;;;;;;;26.89;56.32;99957.31;4984131;28;20116;-75
2023/06/16 09:07:41;;;;;;;3.35;0.98;;;;;;;26.42;53.68;99935.63;4985199;28;20038;-72
2023/06/16 09:10:08;;;;;;;2.60;1.10;;;;;;;26.48;54.49;99891.25;4987606;28;20068;-73
2023/06/16 09:12:35;;;;;;;3.00;0.80;;;;;;;25.43;53.07;99694.63;4977018;28;20087;-74
2023/06/16 09:15:01;;;;;;;3.33;1.70;;;;;;;26.78;54.08;99968.03;4984576;28;20493;-73
2023/06/16 09:17:27;;;;;;;4.18;1.00;;;;;;;27.06;53.67;99947.97;4987637;28;20030;-72
2023/06/16 09:19:53;;;;;;;1.55;1.00;;;;;;;27.00;54.29;99938.53;4982866;28;20042;-72
2023/06/16 09:22:25;;;;;;;3.00;1.27;;;;;;;27.23;54.60;99938.59;4972637;28;20157;-73
2023/06/16 09:24:55;;;;;;;2.50;1.33;;;;;;;27.26;53.92;99950.03;4972840;28;20038;-72
2023/06/16 09:27:23;;;;;;;1.42;0.90;;;;;;;26.35;54.44;99953.22;4986654;28;20043;-73
2023/06/16 09:29:59;;;;;;;3.17;1.58;;;;;;;26.02;55.01;99865.94;4981631;28;20479;-73
2023/06/16 09:32:25;;;;;;;1.67;1.08;;;;;;;26.37;54.90;99950.41;5018992;28;20046;-73
2023/06/16 09:34:50;;;;;;;2.60;1.45;;;;;;;26.60;55.44;99959.50;4985869;28;20065;-73
2023/06/16 09:37:20;;;;;;;2.17;1.33;;;;;;;26.41;54.07;99935.75;4985045;28;20110;-73
2023/06/16 09:39:46;;;;;;;4.78;1.20;;;;;;;25.92;55.26;99864.03;4987373;28;20555;-73
2023/06/16 09:42:12;;;;;;;0.55;0.38;;;;;;;26.17;53.97;99941.94;4984194;28;20060;-72
2023/06/16 09:44:39;;;;;;;1.63;0.80;;;;;;;26.49;53.71;99949.50;4980839;28;20030;-72
2023/06/16 09:47:05;;;;;;;1.70;0.98;;;;;;;26.04;54.05;99857.78;4986458;28;20046;-73
2023/06/16 09:49:30;;;;;;;2.20;1.38;;;;;;;26.25;54.05;99939.56;4981155;28;20498;-73
2023/06/16 09:51:57;;;;;;;2.28;1.20;;;;;;;26.40;56.37;99945.66;4986028;28;20106;-74
2023/06/16 09:54:25;;;;;;;7.78;1.00;;;;;;;25.93;55.45;99850.47;4986111;28;20042;-71
2023/06/16 09:56:54;;;;;;;2.28;0.93;;;;;;;26.32;53.64;99927.38;4975001;28;20039;-72
2023/06/16 09:59:20;;;;;;;2.72;1.25;;;;;;;25.94;54.39;99872.84;4987722;28;20033;-73
2023/06/16 10:01:47;;;;;;;1.38;0.95;;;;;;;26.36;54.23;99919.94;4986117;28;20070;-72
2023/06/16 10:04:15;;;;;;;1.13;0.90;;;;;;;26.50;56.23;99935.06;4981740;28;20471;-72
2023/06/16 10:06:48;;;;;;;1.23;0.68;;;;;;;26.56;56.62;99933.81;4986448;28;20103;-73
2023/06/16 10:09:18;;;;;;;2.30;1.20;;;;;;;26.20;53.00;99917.53;5003826;28;20050;-74
2023/06/16 10:11:46;;;;;;;1.25;0.60;;;;;;;25.75;51.56;99849.94;4978194;28;20038;-73
2023/06/16 10:14:13;;;;;;;0.98;0.40;;;;;;;25.51;49.02;99844.53;4985044;28;20049;-73
2023/06/16 10:16:40;;;;;;;1.52;0.77;;;;;;;26.22;48.56;99937.13;4980218;28;20047;-72
2023/06/16 10:19:07;;;;;;;2.70;0.80;;;;;;;26.25;47.79;99946.78;4983691;28;20505;-72
2023/06/16 10:21:34;;;;;;;1.85;1.42;;;;;;;26.26;47.51;99926.97;4984570;28;20073;-72
2023/06/16 10:24:02;;;;;;;1.80;1.02;;;;;;;26.35;47.77;99931.69;4984390;28;20031;-72
2023/06/16 10:26:29;;;;;;;0.80;0.50;;;;;;;25.93;47.33;99860.38;4986977;28;20117;-73
2023/06/16 10:28:56;;;;;;;1.15;0.60;;;;;;;26.58;47.25;99929.16;4984461;28;20133;-73
2023/06/16 10:31:23;;;;;;;0.85;0.60;;;;;;;26.56;47.51;99923.03;4965330;28;20502;-73
2023/06/16 10:33:59;;;;;;;0.63;0.40;;;;;;;26.47;48.14;99920.00;4984735;28;20733;-72
2023/06/16 10:36:31;;;;;;;2.05;1.27;;;;;;;26.62;48.42;99925.25;4985490;28;20056;-74
2023/06/16 10:39:18;;;;;;;1.50;1.02;;;;;;;26.78;48.46;99933.03;4985411;28;20056;-73
2023/06/16 10:41:54;;;;;;;4.40;2.60;;;;;;;26.79;50.46;99932.09;4986844;28;20498;-72
2023/06/16 10:44:25;;;;;;;2.10;1.00;;;;;;;26.12;50.69;99820.41;4983991;28;20042;-73
2023/06/16 10:47:11;;;;;;;1.15;0.63;;;;;;;26.92;50.32;99930.16;4985500;28;20046;-73
2023/06/16 10:49:55;;;;;;;0.93;0.55;;;;;;;26.55;48.53;99857.59;4978179;28;20076;-72
2023/06/16 10:52:42;;;;;;;6.43;0.88;;;;;;;27.08;48.50;99940.63;4985937;28;20050;-73
2023/06/16 10:55:34;;;;;;;2.15;1.23;;;;;;;27.17;47.91;99931.84;4985384;28;20511;-73
2023/06/16 10:58:15;;;;;;;1.42;0.85;;;;;;;27.00;48.12;99941.22;4984743;28;20556;-72
2023/06/16 11:01:05;;;;;;;1.10;0.50;;;;;;;26.74;48.11;99824.75;4983815;28;20046;-74
2023/06/16 11:03:42;;;;;;;1.42;0.80;;;;;;;27.03;47.31;99817.09;4984871;28;20039;-73
2023/06/16 11:06:08;;;;;;;2.22;1.23;;;;;;;27.21;48.16;99816.66;4978680;28;20056;-74
2023/06/16 11:08:55;;;;;;;4.90;0.88;;;;;;;27.07;48.11;99806.94;4985449;28;20835;-72
2023/06/16 11:11:21;;;;;;;1.85;1.20;;;;;;;26.78;49.10;99807.34;4984629;28;20133;-72
2023/06/16 11:13:47;;;;;;;1.65;0.75;;;;;;;27.49;49.94;99906.97;4983591;28;20041;-73
2023/06/16 11:16:13;;;;;;;1.67;1.33;;;;;;;27.00;50.21;99838.03;4984785;28;20073;-75
2023/06/16 11:18:39;;;;;;;1.80;0.98;;;;;;;27.68;50.37;99907.22;4985562;28;20606;-73
2023/06/16 11:21:06;;;;;;;1.45;0.75;;;;;;;27.03;50.52;99824.31;4986276;28;20042;-73
2023/06/16 11:23:32;;;;;;;2.17;1.08;;;;;;;26.91;50.09;99820.75;4986494;28;20037;-73
2023/06/16 11:26:13;;;;;;;1.05;0.77;;;;;;;27.05;50.56;99893.25;4984673;28;20116;-72
2023/06/16 11:28:40;;;;;;;1.45;0.80;;;;;;;27.95;50.54;99904.16;4981843;28;20604;-73